Crotto, Argentina
Current Conditions -  °F | °C
As of 4:00 PM on Tuesday 27 Jan 2015 (Local Time) from SAEZ Reporting Station
Broken Clouds Broken Clouds  
Wind Chill: 90°   Ceiling: 10000
Heat Index: 93°   Visibility: 6mi
Dew Point: 68°   Wind: 0mph
Humidity: 49%   Direction: NA
Pressure: 29.68"   Gusts: NA
Location:  36.58°S, 60.18°W
Report Text: SAEZ 271900Z 00000KT 9999 FEW045 BKN100 32/20 Q1005
Loading
Personal Weather Stations






























Interactive Weather Map New forecast layout! Learn more

10-Day Weather Forecast

Advertisements
Track Severe Weather on mobile